sensor_id;sensor_type;location;lat;lon;timestamp;P1;durP1;ratioP1;P2;durP2;ratioP2
21741;SDS011;11033;47.490;11.116;2023-03-09T00:02:14;7.40;;;2.85;;
21741;SDS011;11033;47.490;11.116;2023-03-09T00:04:40;4.72;;;2.45;;
21741;SDS011;11033;47.490;11.116;2023-03-09T00:07:05;2.03;;;1.80;;
21741;SDS011;11033;47.490;11.116;2023-03-09T00:09:30;2.97;;;2.30;;
21741;SDS011;11033;47.490;11.116;2023-03-09T00:11:56;3.97;;;2.13;;
21741;SDS011;11033;47.490;11.116;2023-03-09T00:14:21;2.97;;;2.23;;
21741;SDS011;11033;47.490;11.116;2023-03-09T00:16:47;3.92;;;2.47;;
21741;SDS011;11033;47.490;11.116;2023-03-09T00:19:13;1.52;;;1.42;;
21741;SDS011;11033;47.490;11.116;2023-03-09T00:21:45;1.40;;;1.30;;
21741;SDS011;11033;47.490;11.116;2023-03-09T00:24:17;4.15;;;2.67;;
21741;SDS011;11033;47.490;11.116;2023-03-09T00:26:48;3.05;;;2.00;;
21741;SDS011;11033;47.490;11.116;2023-03-09T00:29:15;3.78;;;2.53;;
21741;SDS011;11033;47.490;11.116;2023-03-09T00:31:41;5.00;;;2.97;;
21741;SDS011;11033;47.490;11.116;2023-03-09T00:34:07;3.40;;;2.30;;
21741;SDS011;11033;47.490;11.116;2023-03-09T00:36:33;3.08;;;2.42;;
21741;SDS011;11033;47.490;11.116;2023-03-09T00:38:58;2.60;;;2.08;;
21741;SDS011;11033;47.490;11.116;2023-03-09T00:41:25;2.55;;;2.25;;
21741;SDS011;11033;47.490;11.116;2023-03-09T00:43:52;2.78;;;1.75;;
21741;SDS011;11033;47.490;11.116;2023-03-09T00:46:18;4.05;;;2.30;;
21741;SDS011;11033;47.490;11.116;2023-03-09T00:48:43;2.45;;;1.73;;
21741;SDS011;11033;47.490;11.116;2023-03-09T00:51:09;3.35;;;1.88;;
21741;SDS011;11033;47.490;11.116;2023-03-09T00:53:34;2.25;;;1.60;;
21741;SDS011;11033;47.490;11.116;2023-03-09T00:56:01;1.67;;;1.58;;
21741;SDS011;11033;47.490;11.116;2023-03-09T00:58:28;2.85;;;2.08;;
21741;SDS011;11033;47.490;11.116;2023-03-09T01:00:53;2.30;;;1.90;;
21741;SDS011;11033;47.490;11.116;2023-03-09T01:03:19;3.90;;;1.80;;
21741;SDS011;11033;47.490;11.116;2023-03-09T01:05:44;3.07;;;2.10;;
21741;SDS011;11033;47.490;11.116;2023-03-09T01:08:09;1.80;;;1.50;;
21741;SDS011;11033;47.490;11.116;2023-03-09T01:10:37;2.25;;;1.73;;
21741;SDS011;11033;47.490;11.116;2023-03-09T01:13:03;3.95;;;1.90;;
21741;SDS011;11033;47.490;11.116;2023-03-09T01:15:28;3.40;;;1.60;;
21741;SDS011;11033;47.490;11.116;2023-03-09T01:17:53;4.33;;;1.80;;
21741;SDS011;11033;47.490;11.116;2023-03-09T01:20:18;3.30;;;1.58;;
21741;SDS011;11033;47.490;11.116;2023-03-09T01:22:44;2.47;;;1.85;;
21741;SDS011;11033;47.490;11.116;2023-03-09T01:25:09;3.05;;;1.92;;
21741;SDS011;11033;47.490;11.116;2023-03-09T01:27:34;2.67;;;1.65;;
21741;SDS011;11033;47.490;11.116;2023-03-09T01:30:00;4.30;;;2.10;;
21741;SDS011;11033;47.490;11.116;2023-03-09T01:32:25;2.92;;;1.90;;
21741;SDS011;11033;47.490;11.116;2023-03-09T01:34:51;3.47;;;1.95;;
21741;SDS011;11033;47.490;11.116;2023-03-09T01:37:17;2.40;;;1.73;;
21741;SDS011;11033;47.490;11.116;2023-03-09T01:39:43;4.53;;;2.08;;
21741;SDS011;11033;47.490;11.116;2023-03-09T01:42:09;1.77;;;1.60;;
21741;SDS011;11033;47.490;11.116;2023-03-09T01:44:35;2.53;;;1.95;;
21741;SDS011;11033;47.490;11.116;2023-03-09T01:47:00;2.40;;;1.40;;
21741;SDS011;11033;47.490;11.116;2023-03-09T01:49:28;4.03;;;1.20;;
21741;SDS011;11033;47.490;11.116;2023-03-09T01:54:56;2.78;;;1.90;;
21741;SDS011;11033;47.490;11.116;2023-03-09T02:00:03;2.47;;;1.77;;
21741;SDS011;11033;47.490;11.116;2023-03-09T02:02:33;3.47;;;1.88;;
21741;SDS011;11033;47.490;11.116;2023-03-09T02:05:03;1.45;;;1.30;;
21741;SDS011;11033;47.490;11.116;2023-03-09T02:07:31;2.65;;;1.00;;
21741;SDS011;11033;47.490;11.116;2023-03-09T02:10:04;2.25;;;1.02;;
21741;SDS011;11033;47.490;11.116;2023-03-09T02:12:35;2.70;;;1.20;;
21741;SDS011;11033;47.490;11.116;2023-03-09T02:15:02;2.10;;;1.50;;
21741;SDS011;11033;47.490;11.116;2023-03-09T02:17:28;2.08;;;1.35;;
21741;SDS011;11033;47.490;11.116;2023-03-09T02:19:58;1.48;;;1.30;;
21741;SDS011;11033;47.490;11.116;2023-03-09T02:22:31;1.10;;;1.00;;
21741;SDS011;11033;47.490;11.116;2023-03-09T02:27:34;1.60;;;1.40;;
21741;SDS011;11033;47.490;11.116;2023-03-09T02:30:00;1.65;;;1.42;;
21741;SDS011;11033;47.490;11.116;2023-03-09T02:32:28;1.98;;;1.27;;
21741;SDS011;11033;47.490;11.116;2023-03-09T02:34:54;1.27;;;1.13;;
21741;SDS011;11033;47.490;11.116;2023-03-09T02:37:21;1.20;;;1.10;;
21741;SDS011;11033;47.490;11.116;2023-03-09T02:39:49;1.13;;;1.10;;
21741;SDS011;11033;47.490;11.116;2023-03-09T02:42:16;2.13;;;1.08;;
21741;SDS011;11033;47.490;11.116;2023-03-09T02:44:42;1.40;;;0.98;;
21741;SDS011;11033;47.490;11.116;2023-03-09T02:47:08;1.33;;;1.23;;
21741;SDS011;11033;47.490;11.116;2023-03-09T02:49:37;1.73;;;1.37;;
21741;SDS011;11033;47.490;11.116;2023-03-09T02:52:02;1.50;;;1.40;;
21741;SDS011;11033;47.490;11.116;2023-03-09T02:54:28;1.67;;;1.23;;
21741;SDS011;11033;47.490;11.116;2023-03-09T02:56:53;1.85;;;1.40;;
21741;SDS011;11033;47.490;11.116;2023-03-09T02:59:18;1.70;;;1.47;;
21741;SDS011;11033;47.490;11.116;2023-03-09T03:01:44;2.00;;;1.38;;
21741;SDS011;11033;47.490;11.116;2023-03-09T03:04:09;1.30;;;1.17;;
21741;SDS011;11033;47.490;11.116;2023-03-09T03:06:34;1.65;;;1.55;;
21741;SDS011;11033;47.490;11.116;2023-03-09T03:08:59;1.90;;;1.40;;
21741;SDS011;11033;47.490;11.116;2023-03-09T03:11:25;2.63;;;1.50;;
21741;SDS011;11033;47.490;11.116;2023-03-09T03:13:50;3.13;;;1.43;;
21741;SDS011;11033;47.490;11.116;2023-03-09T03:16:16;5.32;;;1.85;;
21741;SDS011;11033;47.490;11.116;2023-03-09T03:18:41;1.75;;;1.65;;
21741;SDS011;11033;47.490;11.116;2023-03-09T03:21:07;1.48;;;1.38;;
21741;SDS011;11033;47.490;11.116;2023-03-09T03:23:32;1.50;;;1.30;;
21741;SDS011;11033;47.490;11.116;2023-03-09T03:26:03;1.23;;;1.13;;
21741;SDS011;11033;47.490;11.116;2023-03-09T03:28:30;1.75;;;1.10;;
21741;SDS011;11033;47.490;11.116;2023-03-09T03:30:55;2.13;;;1.65;;
21741;SDS011;11033;47.490;11.116;2023-03-09T03:33:20;2.53;;;1.40;;
21741;SDS011;11033;47.490;11.116;2023-03-09T03:35:46;3.10;;;1.20;;
21741;SDS011;11033;47.490;11.116;2023-03-09T03:38:11;1.20;;;1.00;;
21741;SDS011;11033;47.490;11.116;2023-03-09T03:40:36;1.75;;;1.23;;
21741;SDS011;11033;47.490;11.116;2023-03-09T03:43:01;1.37;;;1.10;;
21741;SDS011;11033;47.490;11.116;2023-03-09T03:45:27;1.88;;;1.10;;
21741;SDS011;11033;47.490;11.116;2023-03-09T03:47:52;1.53;;;1.03;;
21741;SDS011;11033;47.490;11.116;2023-03-09T03:50:17;1.27;;;1.17;;
21741;SDS011;11033;47.490;11.116;2023-03-09T03:52:43;1.13;;;1.02;;
21741;SDS011;11033;47.490;11.116;2023-03-09T03:55:08;1.40;;;1.30;;
21741;SDS011;11033;47.490;11.116;2023-03-09T03:57:33;1.63;;;1.52;;
21741;SDS011;11033;47.490;11.116;2023-03-09T03:59:59;1.03;;;0.93;;
21741;SDS011;11033;47.490;11.116;2023-03-09T04:02:24;1.37;;;1.20;;
21741;SDS011;11033;47.490;11.116;2023-03-09T04:04:49;2.97;;;1.45;;
21741;SDS011;11033;47.490;11.116;2023-03-09T04:07:14;2.03;;;1.27;;
21741;SDS011;11033;47.490;11.116;2023-03-09T04:09:40;1.90;;;1.10;;
21741;SDS011;11033;47.490;11.116;2023-03-09T04:12:05;1.35;;;1.23;;
21741;SDS011;11033;47.490;11.116;2023-03-09T04:14:31;1.77;;;1.45;;
21741;SDS011;11033;47.490;11.116;2023-03-09T04:16:57;2.10;;;1.60;;
21741;SDS011;11033;47.490;11.116;2023-03-09T04:19:23;3.50;;;1.65;;
21741;SDS011;11033;47.490;11.116;2023-03-09T04:21:48;2.03;;;1.90;;
21741;SDS011;11033;47.490;11.116;2023-03-09T04:24:14;2.53;;;1.50;;
21741;SDS011;11033;47.490;11.116;2023-03-09T04:26:39;1.67;;;1.37;;
21741;SDS011;11033;47.490;11.116;2023-03-09T04:29:04;2.60;;;1.50;;
21741;SDS011;11033;47.490;11.116;2023-03-09T04:31:29;3.00;;;1.38;;
21741;SDS011;11033;47.490;11.116;2023-03-09T04:33:55;1.33;;;1.10;;
21741;SDS011;11033;47.490;11.116;2023-03-09T04:36:20;2.70;;;1.40;;
21741;SDS011;11033;47.490;11.116;2023-03-09T04:38:45;2.55;;;1.70;;
21741;SDS011;11033;47.490;11.116;2023-03-09T04:41:11;1.67;;;1.57;;
21741;SDS011;11033;47.490;11.116;2023-03-09T04:43:36;2.17;;;1.48;;
21741;SDS011;11033;47.490;11.116;2023-03-09T04:46:02;2.38;;;1.48;;
21741;SDS011;11033;47.490;11.116;2023-03-09T04:48:27;2.10;;;1.50;;
21741;SDS011;11033;47.490;11.116;2023-03-09T04:50:53;2.13;;;1.80;;
21741;SDS011;11033;47.490;11.116;2023-03-09T04:53:18;1.45;;;1.35;;
21741;SDS011;11033;47.490;11.116;2023-03-09T04:55:43;1.87;;;1.30;;
21741;SDS011;11033;47.490;11.116;2023-03-09T04:58:09;1.40;;;1.30;;
21741;SDS011;11033;47.490;11.116;2023-03-09T05:00:34;3.63;;;1.87;;
21741;SDS011;11033;47.490;11.116;2023-03-09T05:02:59;2.53;;;1.57;;
21741;SDS011;11033;47.490;11.116;2023-03-09T05:05:24;2.67;;;1.50;;
21741;SDS011;11033;47.490;11.116;2023-03-09T05:07:50;2.67;;;1.83;;
21741;SDS011;11033;47.490;11.116;2023-03-09T05:10:15;3.53;;;2.00;;
21741;SDS011;11033;47.490;11.116;2023-03-09T05:12:40;2.90;;;2.10;;
21741;SDS011;11033;47.490;11.116;2023-03-09T05:15:06;4.43;;;2.47;;
21741;SDS011;11033;47.490;11.116;2023-03-09T05:17:32;5.70;;;2.38;;
21741;SDS011;11033;47.490;11.116;2023-03-09T05:19:58;3.67;;;2.40;;
21741;SDS011;11033;47.490;11.116;2023-03-09T05:22:23;4.82;;;2.70;;
21741;SDS011;11033;47.490;11.116;2023-03-09T05:24:48;4.60;;;2.63;;
21741;SDS011;11033;47.490;11.116;2023-03-09T05:27:13;2.88;;;2.50;;
21741;SDS011;11033;47.490;11.116;2023-03-09T05:29:39;5.47;;;3.05;;
21741;SDS011;11033;47.490;11.116;2023-03-09T05:32:05;3.08;;;2.40;;
21741;SDS011;11033;47.490;11.116;2023-03-09T05:34:30;5.50;;;3.47;;
21741;SDS011;11033;47.490;11.116;2023-03-09T05:36:56;2.78;;;2.30;;
21741;SDS011;11033;47.490;11.116;2023-03-09T05:39:22;2.67;;;1.73;;
21741;SDS011;11033;47.490;11.116;2023-03-09T05:41:47;3.10;;;2.55;;
21741;SDS011;11033;47.490;11.116;2023-03-09T05:44:12;1.70;;;1.60;;
21741;SDS011;11033;47.490;11.116;2023-03-09T05:46:38;1.80;;;1.70;;
21741;SDS011;11033;47.490;11.116;2023-03-09T05:49:04;2.10;;;1.90;;
21741;SDS011;11033;47.490;11.116;2023-03-09T05:51:29;6.45;;;2.15;;
21741;SDS011;11033;47.490;11.116;2023-03-09T05:53:55;4.38;;;1.92;;
21741;SDS011;11033;47.490;11.116;2023-03-09T05:56:20;1.88;;;1.70;;
21741;SDS011;11033;47.490;11.116;2023-03-09T05:58:47;3.53;;;1.58;;
21741;SDS011;11033;47.490;11.116;2023-03-09T06:01:17;4.32;;;2.50;;
21741;SDS011;11033;47.490;11.116;2023-03-09T06:03:44;5.03;;;2.20;;
21741;SDS011;11033;47.490;11.116;2023-03-09T06:06:09;3.28;;;2.13;;
21741;SDS011;11033;47.490;11.116;2023-03-09T06:08:34;2.90;;;1.92;;
21741;SDS011;11033;47.490;11.116;2023-03-09T06:11:00;3.65;;;2.30;;
21741;SDS011;11033;47.490;11.116;2023-03-09T06:13:26;5.47;;;3.90;;
21741;SDS011;11033;47.490;11.116;2023-03-09T06:15:52;5.80;;;3.28;;
21741;SDS011;11033;47.490;11.116;2023-03-09T06:18:17;11.20;;;4.93;;
21741;SDS011;11033;47.490;11.116;2023-03-09T06:20:43;8.45;;;4.32;;
21741;SDS011;11033;47.490;11.116;2023-03-09T06:23:09;15.30;;;6.28;;
21741;SDS011;11033;47.490;11.116;2023-03-09T06:25:35;14.10;;;6.15;;
21741;SDS011;11033;47.490;11.116;2023-03-09T06:28:01;10.77;;;5.35;;
21741;SDS011;11033;47.490;11.116;2023-03-09T06:30:27;15.95;;;6.28;;
21741;SDS011;11033;47.490;11.116;2023-03-09T06:32:53;13.15;;;6.57;;
21741;SDS011;11033;47.490;11.116;2023-03-09T06:35:19;10.68;;;6.60;;
21741;SDS011;11033;47.490;11.116;2023-03-09T06:37:45;7.70;;;4.77;;
21741;SDS011;11033;47.490;11.116;2023-03-09T06:40:11;8.13;;;4.68;;
21741;SDS011;11033;47.490;11.116;2023-03-09T06:42:37;7.72;;;4.90;;
21741;SDS011;11033;47.490;11.116;2023-03-09T06:45:04;12.25;;;6.20;;
21741;SDS011;11033;47.490;11.116;2023-03-09T06:47:30;6.13;;;3.95;;
21741;SDS011;11033;47.490;11.116;2023-03-09T06:49:55;7.43;;;4.53;;
21741;SDS011;11033;47.490;11.116;2023-03-09T06:52:21;10.93;;;5.63;;
21741;SDS011;11033;47.490;11.116;2023-03-09T06:54:46;13.73;;;5.47;;
21741;SDS011;11033;47.490;11.116;2023-03-09T06:57:12;11.73;;;5.45;;
21741;SDS011;11033;47.490;11.116;2023-03-09T06:59:37;7.53;;;4.63;;
21741;SDS011;11033;47.490;11.116;2023-03-09T07:02:03;5.35;;;4.10;;
21741;SDS011;11033;47.490;11.116;2023-03-09T07:04:28;11.27;;;3.33;;
21741;SDS011;11033;47.490;11.116;2023-03-09T07:06:53;3.90;;;2.43;;
21741;SDS011;11033;47.490;11.116;2023-03-09T07:09:18;1.40;;;1.30;;
21741;SDS011;11033;47.490;11.116;2023-03-09T07:11:44;3.53;;;1.50;;
21741;SDS011;11033;47.490;11.116;2023-03-09T07:14:09;3.28;;;1.20;;
21741;SDS011;11033;47.490;11.116;2023-03-09T07:16:35;1.88;;;1.42;;
21741;SDS011;11033;47.490;11.116;2023-03-09T07:19:00;3.30;;;1.77;;
21741;SDS011;11033;47.490;11.116;2023-03-09T07:21:25;1.42;;;1.10;;
21741;SDS011;11033;47.490;11.116;2023-03-09T07:23:51;2.83;;;1.25;;
21741;SDS011;11033;47.490;11.116;2023-03-09T07:26:16;1.15;;;1.00;;
21741;SDS011;11033;47.490;11.116;2023-03-09T07:28:41;0.80;;;0.80;;
21741;SDS011;11033;47.490;11.116;2023-03-09T07:31:11;2.13;;;0.70;;
21741;SDS011;11033;47.490;11.116;2023-03-09T07:33:37;0.38;;;0.38;;
21741;SDS011;11033;47.490;11.116;2023-03-09T07:36:03;1.35;;;0.73;;
21741;SDS011;11033;47.490;11.116;2023-03-09T07:38:29;2.15;;;1.52;;
21741;SDS011;11033;47.490;11.116;2023-03-09T07:40:56;3.30;;;1.33;;
21741;SDS011;11033;47.490;11.116;2023-03-09T07:43:22;2.78;;;0.80;;
21741;SDS011;11033;47.490;11.116;2023-03-09T07:45:47;2.53;;;0.80;;
21741;SDS011;11033;47.490;11.116;2023-03-09T07:48:12;0.50;;;0.50;;
21741;SDS011;11033;47.490;11.116;2023-03-09T07:50:38;0.45;;;0.45;;
21741;SDS011;11033;47.490;11.116;2023-03-09T07:53:04;0.50;;;0.50;;
21741;SDS011;11033;47.490;11.116;2023-03-09T07:55:29;0.50;;;0.50;;
21741;SDS011;11033;47.490;11.116;2023-03-09T07:57:59;1.85;;;1.15;;
21741;SDS011;11033;47.490;11.116;2023-03-09T08:00:24;4.13;;;1.50;;
21741;SDS011;11033;47.490;11.116;2023-03-09T08:02:53;1.42;;;0.88;;
21741;SDS011;11033;47.490;11.116;2023-03-09T08:05:18;0.50;;;0.50;;
21741;SDS011;11033;47.490;11.116;2023-03-09T08:07:44;1.10;;;1.00;;
21741;SDS011;11033;47.490;11.116;2023-03-09T08:10:11;2.30;;;1.30;;
21741;SDS011;11033;47.490;11.116;2023-03-09T08:12:38;2.28;;;1.67;;
21741;SDS011;11033;47.490;11.116;2023-03-09T08:15:04;6.78;;;5.03;;
21741;SDS011;11033;47.490;11.116;2023-03-09T08:17:30;4.75;;;2.65;;
21741;SDS011;11033;47.490;11.116;2023-03-09T08:19:55;5.03;;;4.30;;
21741;SDS011;11033;47.490;11.116;2023-03-09T08:22:20;4.80;;;2.67;;
21741;SDS011;11033;47.490;11.116;2023-03-09T08:24:45;4.40;;;2.67;;
21741;SDS011;11033;47.490;11.116;2023-03-09T08:27:11;4.20;;;2.70;;
21741;SDS011;11033;47.490;11.116;2023-03-09T08:29:36;3.40;;;2.30;;
21741;SDS011;11033;47.490;11.116;2023-03-09T08:32:04;3.85;;;3.45;;
21741;SDS011;11033;47.490;11.116;2023-03-09T08:34:31;4.38;;;2.65;;
21741;SDS011;11033;47.490;11.116;2023-03-09T08:36:56;2.50;;;2.25;;
21741;SDS011;11033;47.490;11.116;2023-03-09T08:39:22;2.60;;;1.65;;
21741;SDS011;11033;47.490;11.116;2023-03-09T08:41:47;1.10;;;1.00;;
21741;SDS011;11033;47.490;11.116;2023-03-09T08:44:12;0.87;;;0.80;;
21741;SDS011;11033;47.490;11.116;2023-03-09T08:46:38;0.60;;;0.60;;
21741;SDS011;11033;47.490;11.116;2023-03-09T08:49:03;0.87;;;0.60;;
21741;SDS011;11033;47.490;11.116;2023-03-09T08:51:28;1.17;;;0.50;;
21741;SDS011;11033;47.490;11.116;2023-03-09T08:53:54;1.85;;;0.50;;
21741;SDS011;11033;47.490;11.116;2023-03-09T08:56:20;0.90;;;0.60;;
21741;SDS011;11033;47.490;11.116;2023-03-09T08:58:46;1.15;;;0.93;;
21741;SDS011;11033;47.490;11.116;2023-03-09T09:01:12;0.47;;;0.47;;
21741;SDS011;11033;47.490;11.116;2023-03-09T09:03:37;0.45;;;0.45;;
21741;SDS011;11033;47.490;11.116;2023-03-09T09:06:10;0.60;;;0.60;;
21741;SDS011;11033;47.490;11.116;2023-03-09T09:08:37;0.40;;;0.40;;
21741;SDS011;11033;47.490;11.116;2023-03-09T09:11:04;0.40;;;0.40;;
21741;SDS011;11033;47.490;11.116;2023-03-09T09:13:37;0.70;;;0.60;;
21741;SDS011;11033;47.490;11.116;2023-03-09T09:16:03;0.63;;;0.50;;
21741;SDS011;11033;47.490;11.116;2023-03-09T09:18:30;1.58;;;0.90;;
21741;SDS011;11033;47.490;11.116;2023-03-09T09:20:56;2.75;;;0.70;;
21741;SDS011;11033;47.490;11.116;2023-03-09T09:23:23;0.60;;;0.60;;
21741;SDS011;11033;47.490;11.116;2023-03-09T09:25:55;0.55;;;0.55;;
21741;SDS011;11033;47.490;11.116;2023-03-09T09:28:22;0.40;;;0.40;;
21741;SDS011;11033;47.490;11.116;2023-03-09T09:30:54;0.80;;;0.55;;
21741;SDS011;11033;47.490;11.116;2023-03-09T09:33:21;0.40;;;0.40;;
21741;SDS011;11033;47.490;11.116;2023-03-09T09:38:28;1.45;;;0.90;;
21741;SDS011;11033;47.490;11.116;2023-03-09T09:40:55;2.00;;;0.55;;
21741;SDS011;11033;47.490;11.116;2023-03-09T09:43:22;0.38;;;0.38;;
21741;SDS011;11033;47.490;11.116;2023-03-09T09:45:49;2.92;;;0.50;;
21741;SDS011;11033;47.490;11.116;2023-03-09T09:48:19;1.00;;;0.60;;
21741;SDS011;11033;47.490;11.116;2023-03-09T09:53:34;0.85;;;0.50;;
21741;SDS011;11033;47.490;11.116;2023-03-09T09:56:00;1.17;;;0.50;;
21741;SDS011;11033;47.490;11.116;2023-03-09T09:58:31;1.08;;;0.68;;
21741;SDS011;11033;47.490;11.116;2023-03-09T10:01:02;0.50;;;0.50;;
21741;SDS011;11033;47.490;11.116;2023-03-09T10:03:38;0.85;;;0.60;;
21741;SDS011;11033;47.490;11.116;2023-03-09T10:06:22;0.40;;;0.40;;
21741;SDS011;11033;47.490;11.116;2023-03-09T10:09:00;0.50;;;0.50;;
21741;SDS011;11033;47.490;11.116;2023-03-09T10:11:36;0.73;;;0.40;;
21741;SDS011;11033;47.490;11.116;2023-03-09T10:16:48;1.05;;;0.60;;
21741;SDS011;11033;47.490;11.116;2023-03-09T10:19:21;0.43;;;0.43;;
21741;SDS011;11033;47.490;11.116;2023-03-09T10:21:57;0.60;;;0.60;;
21741;SDS011;11033;47.490;11.116;2023-03-09T10:24:25;6.13;;;0.73;;
21741;SDS011;11033;47.490;11.116;2023-03-09T10:29:52;0.57;;;0.57;;
21741;SDS011;11033;47.490;11.116;2023-03-09T10:35:11;0.45;;;0.45;;
21741;SDS011;11033;47.490;11.116;2023-03-09T10:37:43;1.92;;;0.80;;
21741;SDS011;11033;47.490;11.116;2023-03-09T10:40:22;1.17;;;0.70;;
21741;SDS011;11033;47.490;11.116;2023-03-09T10:42:50;0.93;;;0.63;;
21741;SDS011;11033;47.490;11.116;2023-03-09T10:45:19;1.00;;;0.90;;
21741;SDS011;11033;47.490;11.116;2023-03-09T10:47:56;1.55;;;0.93;;
21741;SDS011;11033;47.490;11.116;2023-03-09T10:50:35;0.80;;;0.80;;
21741;SDS011;11033;47.490;11.116;2023-03-09T10:56:23;0.80;;;0.80;;
21741;SDS011;11033;47.490;11.116;2023-03-09T11:06:50;0.93;;;0.60;;
21741;SDS011;11033;47.490;11.116;2023-03-09T11:09:18;1.23;;;0.60;;
21741;SDS011;11033;47.490;11.116;2023-03-09T11:11:46;1.20;;;0.60;;
21741;SDS011;11033;47.490;11.116;2023-03-09T11:14:20;0.70;;;0.60;;
21741;SDS011;11033;47.490;11.116;2023-03-09T11:16:49;2.40;;;0.70;;
21741;SDS011;11033;47.490;11.116;2023-03-09T11:19:17;1.15;;;0.77;;
21741;SDS011;11033;47.490;11.116;2023-03-09T11:22:04;2.78;;;1.15;;
21741;SDS011;11033;47.490;11.116;2023-03-09T11:24:38;3.22;;;0.90;;
21741;SDS011;11033;47.490;11.116;2023-03-09T11:27:13;2.47;;;1.50;;
21741;SDS011;11033;47.490;11.116;2023-03-09T11:29:52;1.85;;;1.02;;
21741;SDS011;11033;47.490;11.116;2023-03-09T11:32:46;0.73;;;0.60;;
21741;SDS011;11033;47.490;11.116;2023-03-09T11:35:14;1.83;;;0.88;;
21741;SDS011;11033;47.490;11.116;2023-03-09T11:37:42;3.15;;;1.00;;
21741;SDS011;11033;47.490;11.116;2023-03-09T11:42:48;0.60;;;0.60;;
21741;SDS011;11033;47.490;11.116;2023-03-09T11:45:20;1.40;;;0.70;;
21741;SDS011;11033;47.490;11.116;2023-03-09T11:47:54;2.05;;;1.00;;
21741;SDS011;11033;47.490;11.116;2023-03-09T11:50:21;1.20;;;0.85;;
21741;SDS011;11033;47.490;11.116;2023-03-09T11:52:51;1.70;;;0.65;;
21741;SDS011;11033;47.490;11.116;2023-03-09T11:55:22;3.33;;;1.20;;
21741;SDS011;11033;47.490;11.116;2023-03-09T11:57:54;1.95;;;0.95;;
21741;SDS011;11033;47.490;11.116;2023-03-09T12:00:24;1.48;;;1.00;;
21741;SDS011;11033;47.490;11.116;2023-03-09T12:05:17;1.33;;;1.10;;
21741;SDS011;11033;47.490;11.116;2023-03-09T12:07:57;3.38;;;2.10;;
21741;SDS011;11033;47.490;11.116;2023-03-09T12:13:16;3.35;;;1.73;;
21741;SDS011;11033;47.490;11.116;2023-03-09T12:15:59;2.63;;;1.13;;
21741;SDS011;11033;47.490;11.116;2023-03-09T12:18:40;5.38;;;1.13;;
21741;SDS011;11033;47.490;11.116;2023-03-09T12:21:26;4.22;;;1.10;;
21741;SDS011;11033;47.490;11.116;2023-03-09T12:23:55;4.65;;;1.67;;
21741;SDS011;11033;47.490;11.116;2023-03-09T12:26:29;3.10;;;1.30;;
21741;SDS011;11033;47.490;11.116;2023-03-09T12:29:04;3.67;;;0.73;;
21741;SDS011;11033;47.490;11.116;2023-03-09T12:31:37;1.20;;;0.90;;
21741;SDS011;11033;47.490;11.116;2023-03-09T12:36:36;2.15;;;0.80;;
21741;SDS011;11033;47.490;11.116;2023-03-09T12:42:01;2.63;;;0.90;;
21741;SDS011;11033;47.490;11.116;2023-03-09T12:52:51;2.50;;;0.88;;
21741;SDS011;11033;47.490;11.116;2023-03-09T13:06:23;1.60;;;1.00;;
21741;SDS011;11033;47.490;11.116;2023-03-09T13:08:59;1.95;;;0.88;;
21741;SDS011;11033;47.490;11.116;2023-03-09T13:11:29;2.88;;;0.85;;
21741;SDS011;11033;47.490;11.116;2023-03-09T13:14:02;4.18;;;0.90;;
21741;SDS011;11033;47.490;11.116;2023-03-09T13:16:47;2.25;;;1.05;;
21741;SDS011;11033;47.490;11.116;2023-03-09T13:27:10;1.42;;;0.77;;
21741;SDS011;11033;47.490;11.116;2023-03-09T13:30:00;3.17;;;1.17;;
21741;SDS011;11033;47.490;11.116;2023-03-09T13:32:40;1.95;;;1.73;;
21741;SDS011;11033;47.490;11.116;2023-03-09T13:35:18;3.95;;;1.10;;
21741;SDS011;11033;47.490;11.116;2023-03-09T13:37:46;2.38;;;2.20;;
21741;SDS011;11033;47.490;11.116;2023-03-09T13:42:52;4.88;;;1.60;;
21741;SDS011;11033;47.490;11.116;2023-03-09T13:45:19;1.75;;;1.30;;
21741;SDS011;11033;47.490;11.116;2023-03-09T13:47:50;2.22;;;1.20;;
21741;SDS011;11033;47.490;11.116;2023-03-09T13:50:17;1.65;;;1.00;;
21741;SDS011;11033;47.490;11.116;2023-03-09T13:55:29;1.58;;;1.02;;
21741;SDS011;11033;47.490;11.116;2023-03-09T14:00:59;3.08;;;0.82;;
21741;SDS011;11033;47.490;11.116;2023-03-09T14:03:28;2.03;;;1.17;;
21741;SDS011;11033;47.490;11.116;2023-03-09T14:08:22;4.50;;;1.80;;
21741;SDS011;11033;47.490;11.116;2023-03-09T14:10:48;1.33;;;1.00;;
21741;SDS011;11033;47.490;11.116;2023-03-09T14:13:16;1.90;;;1.00;;
21741;SDS011;11033;47.490;11.116;2023-03-09T14:15:46;3.97;;;1.30;;
21741;SDS011;11033;47.490;11.116;2023-03-09T14:18:40;4.20;;;1.17;;
21741;SDS011;11033;47.490;11.116;2023-03-09T14:21:26;4.10;;;0.98;;
21741;SDS011;11033;47.490;11.116;2023-03-09T14:23:54;1.30;;;0.90;;
21741;SDS011;11033;47.490;11.116;2023-03-09T14:26:23;1.85;;;1.15;;
21741;SDS011;11033;47.490;11.116;2023-03-09T14:34:47;0.63;;;0.50;;
21741;SDS011;11033;47.490;11.116;2023-03-09T14:37:17;1.70;;;1.10;;
21741;SDS011;11033;47.490;11.116;2023-03-09T14:39:46;1.70;;;1.02;;
21741;SDS011;11033;47.490;11.116;2023-03-09T14:42:16;2.95;;;1.40;;
21741;SDS011;11033;47.490;11.116;2023-03-09T14:47:36;0.93;;;0.85;;
21741;SDS011;11033;47.490;11.116;2023-03-09T14:50:03;2.17;;;1.33;;
21741;SDS011;11033;47.490;11.116;2023-03-09T14:52:29;4.30;;;1.17;;
21741;SDS011;11033;47.490;11.116;2023-03-09T14:54:56;3.42;;;1.13;;
21741;SDS011;11033;47.490;11.116;2023-03-09T14:57:24;2.13;;;1.25;;
21741;SDS011;11033;47.490;11.116;2023-03-09T14:59:49;3.60;;;0.98;;
21741;SDS011;11033;47.490;11.116;2023-03-09T15:02:15;2.75;;;1.27;;
21741;SDS011;11033;47.490;11.116;2023-03-09T15:04:41;3.75;;;1.20;;
21741;SDS011;11033;47.490;11.116;2023-03-09T15:07:09;1.70;;;0.77;;
21741;SDS011;11033;47.490;11.116;2023-03-09T15:09:38;2.10;;;1.20;;
21741;SDS011;11033;47.490;11.116;2023-03-09T15:12:07;3.97;;;0.88;;
21741;SDS011;11033;47.490;11.116;2023-03-09T15:14:34;1.80;;;0.70;;
21741;SDS011;11033;47.490;11.116;2023-03-09T15:17:02;2.75;;;1.40;;
21741;SDS011;11033;47.490;11.116;2023-03-09T15:19:29;2.35;;;1.20;;
21741;SDS011;11033;47.490;11.116;2023-03-09T15:21:55;2.20;;;1.23;;
21741;SDS011;11033;47.490;11.116;2023-03-09T15:24:24;1.75;;;1.15;;
21741;SDS011;11033;47.490;11.116;2023-03-09T15:26:50;1.58;;;1.10;;
21741;SDS011;11033;47.490;11.116;2023-03-09T15:29:16;2.70;;;1.15;;
21741;SDS011;11033;47.490;11.116;2023-03-09T15:31:42;1.67;;;1.27;;
21741;SDS011;11033;47.490;11.116;2023-03-09T15:34:07;3.05;;;2.00;;
21741;SDS011;11033;47.490;11.116;2023-03-09T15:36:33;1.52;;;0.95;;
21741;SDS011;11033;47.490;11.116;2023-03-09T15:38:58;0.82;;;0.82;;
21741;SDS011;11033;47.490;11.116;2023-03-09T15:41:24;1.80;;;1.00;;
21741;SDS011;11033;47.490;11.116;2023-03-09T15:43:49;2.20;;;1.10;;
21741;SDS011;11033;47.490;11.116;2023-03-09T15:46:15;3.23;;;0.73;;
21741;SDS011;11033;47.490;11.116;2023-03-09T15:48:40;1.25;;;0.85;;
21741;SDS011;11033;47.490;11.116;2023-03-09T15:51:06;0.60;;;0.60;;
21741;SDS011;11033;47.490;11.116;2023-03-09T15:53:32;1.10;;;0.70;;
21741;SDS011;11033;47.490;11.116;2023-03-09T15:55:58;2.45;;;1.00;;
21741;SDS011;11033;47.490;11.116;2023-03-09T15:58:25;3.33;;;0.60;;
21741;SDS011;11033;47.490;11.116;2023-03-09T16:00:50;1.65;;;0.77;;
21741;SDS011;11033;47.490;11.116;2023-03-09T16:03:20;1.23;;;0.95;;
21741;SDS011;11033;47.490;11.116;2023-03-09T16:05:45;1.40;;;1.30;;
21741;SDS011;11033;47.490;11.116;2023-03-09T16:08:11;2.43;;;1.47;;
21741;SDS011;11033;47.490;11.116;2023-03-09T16:10:36;2.17;;;1.50;;